sensor_id;sensor_type;location;lat;lon;timestamp;P1;durP1;ratioP1;P2;durP2;ratioP2
12968;SDS011;6549;53.128;8.182;2023-02-13T00:01:42;18.80;;;11.57;;
12968;SDS011;6549;53.128;8.182;2023-02-13T00:04:42;20.35;;;12.38;;
12968;SDS011;6549;53.128;8.182;2023-02-13T00:07:42;15.82;;;10.55;;
12968;SDS011;6549;53.128;8.182;2023-02-13T00:10:43;18.27;;;11.73;;
12968;SDS011;6549;53.128;8.182;2023-02-13T00:13:43;18.23;;;11.77;;
12968;SDS011;6549;53.128;8.182;2023-02-13T00:16:43;16.83;;;11.23;;
12968;SDS011;6549;53.128;8.182;2023-02-13T00:19:43;21.13;;;13.53;;
12968;SDS011;6549;53.128;8.182;2023-02-13T00:22:44;16.60;;;10.85;;
12968;SDS011;6549;53.128;8.182;2023-02-13T00:25:44;14.73;;;9.83;;
12968;SDS011;6549;53.128;8.182;2023-02-13T00:28:44;14.37;;;9.37;;
12968;SDS011;6549;53.128;8.182;2023-02-13T00:31:45;15.40;;;9.77;;
12968;SDS011;6549;53.128;8.182;2023-02-13T00:34:45;15.47;;;9.97;;
12968;SDS011;6549;53.128;8.182;2023-02-13T00:37:45;13.53;;;8.93;;
12968;SDS011;6549;53.128;8.182;2023-02-13T00:40:45;16.77;;;10.63;;
12968;SDS011;6549;53.128;8.182;2023-02-13T00:43:46;26.67;;;15.25;;
12968;SDS011;6549;53.128;8.182;2023-02-13T00:46:47;19.48;;;11.82;;
12968;SDS011;6549;53.128;8.182;2023-02-13T00:49:47;24.77;;;15.47;;
12968;SDS011;6549;53.128;8.182;2023-02-13T00:52:47;30.00;;;16.33;;
12968;SDS011;6549;53.128;8.182;2023-02-13T00:55:47;26.23;;;15.97;;
12968;SDS011;6549;53.128;8.182;2023-02-13T00:58:48;23.52;;;14.35;;
12968;SDS011;6549;53.128;8.182;2023-02-13T01:01:48;18.50;;;12.60;;
12968;SDS011;6549;53.128;8.182;2023-02-13T01:04:49;19.57;;;12.23;;
12968;SDS011;6549;53.128;8.182;2023-02-13T01:07:49;18.33;;;11.35;;
12968;SDS011;6549;53.128;8.182;2023-02-13T01:10:49;18.88;;;12.43;;
12968;SDS011;6549;53.128;8.182;2023-02-13T01:13:50;16.13;;;10.70;;
12968;SDS011;6549;53.128;8.182;2023-02-13T01:16:50;18.58;;;11.35;;
12968;SDS011;6549;53.128;8.182;2023-02-13T01:19:50;20.77;;;12.57;;
12968;SDS011;6549;53.128;8.182;2023-02-13T01:22:50;21.37;;;13.17;;
12968;SDS011;6549;53.128;8.182;2023-02-13T01:25:51;24.70;;;13.53;;
12968;SDS011;6549;53.128;8.182;2023-02-13T01:28:54;21.30;;;12.65;;
12968;SDS011;6549;53.128;8.182;2023-02-13T01:31:54;22.02;;;12.43;;
12968;SDS011;6549;53.128;8.182;2023-02-13T01:34:54;19.90;;;12.27;;
12968;SDS011;6549;53.128;8.182;2023-02-13T01:37:55;17.03;;;10.43;;
12968;SDS011;6549;53.128;8.182;2023-02-13T01:40:55;16.47;;;10.13;;
12968;SDS011;6549;53.128;8.182;2023-02-13T01:43:59;14.93;;;9.80;;
12968;SDS011;6549;53.128;8.182;2023-02-13T01:47:00;16.17;;;10.07;;
12968;SDS011;6549;53.128;8.182;2023-02-13T01:53:19;24.10;;;14.82;;
12968;SDS011;6549;53.128;8.182;2023-02-13T01:56:29;18.23;;;11.43;;
12968;SDS011;6549;53.128;8.182;2023-02-13T01:59:40;18.33;;;11.33;;
12968;SDS011;6549;53.128;8.182;2023-02-13T02:02:48;19.25;;;12.05;;
12968;SDS011;6549;53.128;8.182;2023-02-13T02:05:53;17.10;;;10.60;;
12968;SDS011;6549;53.128;8.182;2023-02-13T02:08:57;16.98;;;10.98;;
12968;SDS011;6549;53.128;8.182;2023-02-13T02:15:35;15.55;;;9.50;;
12968;SDS011;6549;53.128;8.182;2023-02-13T02:18:36;13.20;;;8.50;;
12968;SDS011;6549;53.128;8.182;2023-02-13T02:21:45;14.13;;;8.95;;
12968;SDS011;6549;53.128;8.182;2023-02-13T02:28:25;14.40;;;8.95;;
12968;SDS011;6549;53.128;8.182;2023-02-13T02:31:41;13.82;;;9.32;;
12968;SDS011;6549;53.128;8.182;2023-02-13T02:45:34;15.65;;;9.40;;
12968;SDS011;6549;53.128;8.182;2023-02-13T02:48:43;13.13;;;7.68;;
12968;SDS011;6549;53.128;8.182;2023-02-13T02:58:47;16.83;;;9.05;;
12968;SDS011;6549;53.128;8.182;2023-02-13T03:02:29;13.32;;;8.75;;
12968;SDS011;6549;53.128;8.182;2023-02-13T03:05:50;13.98;;;8.75;;
12968;SDS011;6549;53.128;8.182;2023-02-13T03:09:11;18.50;;;10.90;;
12968;SDS011;6549;53.128;8.182;2023-02-13T03:12:38;15.13;;;9.77;;
12968;SDS011;6549;53.128;8.182;2023-02-13T03:16:01;14.48;;;9.38;;
12968;SDS011;6549;53.128;8.182;2023-02-13T03:19:27;12.43;;;7.65;;
12968;SDS011;6549;53.128;8.182;2023-02-13T03:22:59;15.00;;;9.20;;
12968;SDS011;6549;53.128;8.182;2023-02-13T03:26:05;15.38;;;10.15;;
12968;SDS011;6549;53.128;8.182;2023-02-13T03:29:19;23.67;;;14.30;;
12968;SDS011;6549;53.128;8.182;2023-02-13T03:36:14;28.90;;;17.48;;
12968;SDS011;6549;53.128;8.182;2023-02-13T03:39:47;29.65;;;17.60;;
12968;SDS011;6549;53.128;8.182;2023-02-13T03:43:05;24.58;;;14.82;;
12968;SDS011;6549;53.128;8.182;2023-02-13T03:46:09;25.55;;;15.07;;
12968;SDS011;6549;53.128;8.182;2023-02-13T03:49:12;24.70;;;15.45;;
12968;SDS011;6549;53.128;8.182;2023-02-13T03:52:43;22.63;;;13.90;;
12968;SDS011;6549;53.128;8.182;2023-02-13T03:55:47;22.98;;;14.40;;
12968;SDS011;6549;53.128;8.182;2023-02-13T03:59:08;21.17;;;13.07;;
12968;SDS011;6549;53.128;8.182;2023-02-13T04:02:19;19.27;;;12.70;;
12968;SDS011;6549;53.128;8.182;2023-02-13T04:05:24;20.73;;;12.88;;
12968;SDS011;6549;53.128;8.182;2023-02-13T04:08:28;25.27;;;15.13;;
12968;SDS011;6549;53.128;8.182;2023-02-13T04:11:36;19.92;;;12.90;;
12968;SDS011;6549;53.128;8.182;2023-02-13T04:14:48;21.95;;;13.30;;
12968;SDS011;6549;53.128;8.182;2023-02-13T04:18:01;23.37;;;13.90;;
12968;SDS011;6549;53.128;8.182;2023-02-13T04:21:06;19.27;;;12.35;;
12968;SDS011;6549;53.128;8.182;2023-02-13T04:24:07;21.30;;;12.43;;
12968;SDS011;6549;53.128;8.182;2023-02-13T04:27:09;24.20;;;15.18;;
12968;SDS011;6549;53.128;8.182;2023-02-13T04:30:13;23.65;;;14.43;;
12968;SDS011;6549;53.128;8.182;2023-02-13T04:33:13;25.10;;;14.68;;
12968;SDS011;6549;53.128;8.182;2023-02-13T04:36:14;28.73;;;17.60;;
12968;SDS011;6549;53.128;8.182;2023-02-13T04:39:14;22.93;;;15.20;;
12968;SDS011;6549;53.128;8.182;2023-02-13T04:42:15;23.02;;;13.75;;
12968;SDS011;6549;53.128;8.182;2023-02-13T04:45:15;20.43;;;12.77;;
12968;SDS011;6549;53.128;8.182;2023-02-13T04:48:16;18.60;;;11.55;;
12968;SDS011;6549;53.128;8.182;2023-02-13T04:51:16;18.75;;;11.38;;
12968;SDS011;6549;53.128;8.182;2023-02-13T04:54:17;17.55;;;10.90;;
12968;SDS011;6549;53.128;8.182;2023-02-13T04:57:17;31.43;;;17.63;;
12968;SDS011;6549;53.128;8.182;2023-02-13T05:00:18;25.00;;;15.80;;
12968;SDS011;6549;53.128;8.182;2023-02-13T05:03:19;27.60;;;16.63;;
12968;SDS011;6549;53.128;8.182;2023-02-13T05:06:19;22.57;;;13.83;;
12968;SDS011;6549;53.128;8.182;2023-02-13T05:09:20;20.73;;;13.15;;
12968;SDS011;6549;53.128;8.182;2023-02-13T05:12:20;21.65;;;13.48;;
12968;SDS011;6549;53.128;8.182;2023-02-13T05:15:20;18.93;;;11.83;;
12968;SDS011;6549;53.128;8.182;2023-02-13T05:18:22;19.95;;;12.70;;
12968;SDS011;6549;53.128;8.182;2023-02-13T05:21:22;26.20;;;15.67;;
12968;SDS011;6549;53.128;8.182;2023-02-13T05:24:41;18.55;;;11.88;;
12968;SDS011;6549;53.128;8.182;2023-02-13T05:27:41;16.40;;;10.87;;
12968;SDS011;6549;53.128;8.182;2023-02-13T05:30:42;17.83;;;11.13;;
12968;SDS011;6549;53.128;8.182;2023-02-13T05:33:42;16.97;;;10.93;;
12968;SDS011;6549;53.128;8.182;2023-02-13T05:36:42;22.23;;;14.15;;
12968;SDS011;6549;53.128;8.182;2023-02-13T05:39:42;20.52;;;12.50;;
12968;SDS011;6549;53.128;8.182;2023-02-13T05:42:43;25.67;;;15.00;;
12968;SDS011;6549;53.128;8.182;2023-02-13T05:45:43;19.67;;;11.55;;
12968;SDS011;6549;53.128;8.182;2023-02-13T05:48:43;28.92;;;19.60;;
12968;SDS011;6549;53.128;8.182;2023-02-13T05:51:43;26.20;;;16.57;;
12968;SDS011;6549;53.128;8.182;2023-02-13T05:54:45;22.53;;;15.07;;
12968;SDS011;6549;53.128;8.182;2023-02-13T05:57:46;28.35;;;18.50;;
12968;SDS011;6549;53.128;8.182;2023-02-13T06:00:46;25.13;;;15.83;;
12968;SDS011;6549;53.128;8.182;2023-02-13T06:03:47;22.65;;;15.57;;
12968;SDS011;6549;53.128;8.182;2023-02-13T06:06:48;22.95;;;15.10;;
12968;SDS011;6549;53.128;8.182;2023-02-13T06:09:48;20.38;;;13.88;;
12968;SDS011;6549;53.128;8.182;2023-02-13T06:12:48;21.07;;;12.30;;
12968;SDS011;6549;53.128;8.182;2023-02-13T06:15:48;21.57;;;13.03;;
12968;SDS011;6549;53.128;8.182;2023-02-13T06:18:49;20.05;;;12.38;;
12968;SDS011;6549;53.128;8.182;2023-02-13T06:21:50;17.70;;;11.13;;
12968;SDS011;6549;53.128;8.182;2023-02-13T06:24:50;23.83;;;14.50;;
12968;SDS011;6549;53.128;8.182;2023-02-13T06:27:50;23.70;;;16.23;;
12968;SDS011;6549;53.128;8.182;2023-02-13T06:30:51;22.60;;;13.85;;
12968;SDS011;6549;53.128;8.182;2023-02-13T06:33:51;28.08;;;18.38;;
12968;SDS011;6549;53.128;8.182;2023-02-13T06:36:51;26.53;;;16.83;;
12968;SDS011;6549;53.128;8.182;2023-02-13T06:39:51;22.90;;;15.15;;
12968;SDS011;6549;53.128;8.182;2023-02-13T06:42:52;26.73;;;17.53;;
12968;SDS011;6549;53.128;8.182;2023-02-13T06:45:52;27.38;;;16.15;;
12968;SDS011;6549;53.128;8.182;2023-02-13T06:48:52;23.02;;;15.43;;
12968;SDS011;6549;53.128;8.182;2023-02-13T06:51:53;24.83;;;15.85;;
12968;SDS011;6549;53.128;8.182;2023-02-13T06:54:53;22.65;;;14.40;;
12968;SDS011;6549;53.128;8.182;2023-02-13T06:57:53;22.80;;;14.43;;
12968;SDS011;6549;53.128;8.182;2023-02-13T07:00:54;23.02;;;15.32;;
12968;SDS011;6549;53.128;8.182;2023-02-13T07:03:54;24.43;;;16.00;;
12968;SDS011;6549;53.128;8.182;2023-02-13T07:06:54;23.27;;;14.97;;
12968;SDS011;6549;53.128;8.182;2023-02-13T07:09:56;22.48;;;13.75;;
12968;SDS011;6549;53.128;8.182;2023-02-13T07:12:56;19.27;;;13.17;;
12968;SDS011;6549;53.128;8.182;2023-02-13T07:15:59;21.95;;;14.50;;
12968;SDS011;6549;53.128;8.182;2023-02-13T07:19:00;31.90;;;19.33;;
12968;SDS011;6549;53.128;8.182;2023-02-13T07:22:00;28.40;;;17.80;;
12968;SDS011;6549;53.128;8.182;2023-02-13T07:25:00;30.17;;;19.33;;
12968;SDS011;6549;53.128;8.182;2023-02-13T07:28:01;27.23;;;16.70;;
12968;SDS011;6549;53.128;8.182;2023-02-13T07:31:05;25.08;;;16.10;;
12968;SDS011;6549;53.128;8.182;2023-02-13T07:34:06;24.98;;;15.38;;
12968;SDS011;6549;53.128;8.182;2023-02-13T07:37:07;24.30;;;16.30;;
12968;SDS011;6549;53.128;8.182;2023-02-13T07:40:07;31.85;;;19.83;;
12968;SDS011;6549;53.128;8.182;2023-02-13T07:43:08;25.20;;;16.40;;
12968;SDS011;6549;53.128;8.182;2023-02-13T07:46:08;29.60;;;18.30;;
12968;SDS011;6549;53.128;8.182;2023-02-13T07:49:09;27.95;;;17.70;;
12968;SDS011;6549;53.128;8.182;2023-02-13T07:52:09;23.73;;;14.65;;
12968;SDS011;6549;53.128;8.182;2023-02-13T07:55:10;21.25;;;14.15;;
12968;SDS011;6549;53.128;8.182;2023-02-13T07:58:10;35.92;;;18.75;;
12968;SDS011;6549;53.128;8.182;2023-02-13T08:01:11;24.33;;;14.82;;
12968;SDS011;6549;53.128;8.182;2023-02-13T08:07:14;20.00;;;12.90;;
12968;SDS011;6549;53.128;8.182;2023-02-13T08:10:15;23.83;;;14.63;;
12968;SDS011;6549;53.128;8.182;2023-02-13T08:13:34;41.78;;;23.58;;
12968;SDS011;6549;53.128;8.182;2023-02-13T08:16:36;41.92;;;23.52;;
12968;SDS011;6549;53.128;8.182;2023-02-13T08:19:36;28.90;;;18.10;;
12968;SDS011;6549;53.128;8.182;2023-02-13T08:22:37;27.90;;;17.38;;
12968;SDS011;6549;53.128;8.182;2023-02-13T08:25:38;21.23;;;14.73;;
12968;SDS011;6549;53.128;8.182;2023-02-13T08:28:39;33.00;;;19.38;;
12968;SDS011;6549;53.128;8.182;2023-02-13T08:31:39;31.53;;;18.73;;
12968;SDS011;6549;53.128;8.182;2023-02-13T08:34:39;25.70;;;17.17;;
12968;SDS011;6549;53.128;8.182;2023-02-13T08:37:39;33.20;;;19.93;;
12968;SDS011;6549;53.128;8.182;2023-02-13T08:40:40;35.80;;;21.47;;
12968;SDS011;6549;53.128;8.182;2023-02-13T08:43:40;36.92;;;20.30;;
12968;SDS011;6549;53.128;8.182;2023-02-13T08:46:40;38.83;;;20.80;;
12968;SDS011;6549;53.128;8.182;2023-02-13T08:49:40;43.75;;;21.58;;
12968;SDS011;6549;53.128;8.182;2023-02-13T08:52:41;37.17;;;20.55;;
12968;SDS011;6549;53.128;8.182;2023-02-13T08:55:42;40.63;;;20.93;;
12968;SDS011;6549;53.128;8.182;2023-02-13T08:58:42;41.10;;;21.25;;
12968;SDS011;6549;53.128;8.182;2023-02-13T09:01:43;38.85;;;21.45;;
12968;SDS011;6549;53.128;8.182;2023-02-13T09:04:43;41.30;;;20.73;;
12968;SDS011;6549;53.128;8.182;2023-02-13T09:07:44;34.53;;;18.70;;
12968;SDS011;6549;53.128;8.182;2023-02-13T09:10:44;41.80;;;20.50;;
12968;SDS011;6549;53.128;8.182;2023-02-13T09:13:44;37.28;;;20.08;;
12968;SDS011;6549;53.128;8.182;2023-02-13T09:16:45;35.08;;;18.77;;
12968;SDS011;6549;53.128;8.182;2023-02-13T09:19:45;36.87;;;19.10;;
12968;SDS011;6549;53.128;8.182;2023-02-13T09:22:46;35.33;;;17.58;;
12968;SDS011;6549;53.128;8.182;2023-02-13T09:25:46;33.33;;;18.30;;
12968;SDS011;6549;53.128;8.182;2023-02-13T09:28:46;37.40;;;18.83;;
12968;SDS011;6549;53.128;8.182;2023-02-13T09:31:46;32.45;;;17.55;;
12968;SDS011;6549;53.128;8.182;2023-02-13T09:34:47;35.13;;;18.27;;
12968;SDS011;6549;53.128;8.182;2023-02-13T09:37:47;38.20;;;18.60;;
12968;SDS011;6549;53.128;8.182;2023-02-13T09:40:49;30.75;;;17.38;;
12968;SDS011;6549;53.128;8.182;2023-02-13T09:43:54;35.38;;;18.65;;
12968;SDS011;6549;53.128;8.182;2023-02-13T09:47:24;31.83;;;16.52;;
12968;SDS011;6549;53.128;8.182;2023-02-13T09:50:26;33.83;;;17.13;;
12968;SDS011;6549;53.128;8.182;2023-02-13T09:53:30;31.85;;;16.25;;
12968;SDS011;6549;53.128;8.182;2023-02-13T10:09:24;30.65;;;16.08;;
12968;SDS011;6549;53.128;8.182;2023-02-13T10:15:50;29.15;;;14.77;;
12968;SDS011;6549;53.128;8.182;2023-02-13T10:19:33;33.50;;;16.20;;
12968;SDS011;6549;53.128;8.182;2023-02-13T10:22:29;27.65;;;15.15;;
12968;SDS011;6549;53.128;8.182;2023-02-13T10:25:40;29.35;;;15.48;;
12968;SDS011;6549;53.128;8.182;2023-02-13T10:28:52;29.73;;;15.27;;
12968;SDS011;6549;53.128;8.182;2023-02-13T10:32:17;29.45;;;15.88;;
12968;SDS011;6549;53.128;8.182;2023-02-13T10:35:28;29.30;;;15.57;;
12968;SDS011;6549;53.128;8.182;2023-02-13T10:38:31;28.70;;;16.23;;
12968;SDS011;6549;53.128;8.182;2023-02-13T10:51:29;29.88;;;15.93;;
12968;SDS011;6549;53.128;8.182;2023-02-13T10:58:41;28.13;;;15.88;;
12968;SDS011;6549;53.128;8.182;2023-02-13T11:01:40;28.20;;;15.23;;
12968;SDS011;6549;53.128;8.182;2023-02-13T11:04:56;30.17;;;16.13;;
12968;SDS011;6549;53.128;8.182;2023-02-13T11:08:22;28.10;;;15.63;;
12968;SDS011;6549;53.128;8.182;2023-02-13T11:11:31;31.92;;;16.50;;
12968;SDS011;6549;53.128;8.182;2023-02-13T11:14:34;30.58;;;16.85;;
12968;SDS011;6549;53.128;8.182;2023-02-13T11:17:35;28.43;;;16.67;;
12968;SDS011;6549;53.128;8.182;2023-02-13T11:20:42;29.95;;;17.50;;
12968;SDS011;6549;53.128;8.182;2023-02-13T11:23:49;33.35;;;17.50;;
12968;SDS011;6549;53.128;8.182;2023-02-13T11:27:01;29.02;;;17.02;;
12968;SDS011;6549;53.128;8.182;2023-02-13T11:33:32;30.25;;;17.73;;
12968;SDS011;6549;53.128;8.182;2023-02-13T11:36:33;28.97;;;16.80;;
12968;SDS011;6549;53.128;8.182;2023-02-13T11:39:33;30.98;;;16.90;;
12968;SDS011;6549;53.128;8.182;2023-02-13T11:42:34;34.37;;;19.10;;
12968;SDS011;6549;53.128;8.182;2023-02-13T11:45:35;32.63;;;17.83;;
12968;SDS011;6549;53.128;8.182;2023-02-13T11:48:35;31.48;;;17.15;;
12968;SDS011;6549;53.128;8.182;2023-02-13T11:51:36;30.40;;;17.38;;
12968;SDS011;6549;53.128;8.182;2023-02-13T11:54:43;31.17;;;16.90;;
12968;SDS011;6549;53.128;8.182;2023-02-13T11:57:45;34.08;;;19.83;;
12968;SDS011;6549;53.128;8.182;2023-02-13T12:01:09;32.25;;;18.95;;
12968;SDS011;6549;53.128;8.182;2023-02-13T12:04:22;38.90;;;22.58;;
12968;SDS011;6549;53.128;8.182;2023-02-13T12:07:26;33.83;;;18.00;;
12968;SDS011;6549;53.128;8.182;2023-02-13T12:10:32;33.33;;;18.30;;
12968;SDS011;6549;53.128;8.182;2023-02-13T12:13:36;32.42;;;18.27;;
12968;SDS011;6549;53.128;8.182;2023-02-13T12:16:42;31.35;;;18.27;;
12968;SDS011;6549;53.128;8.182;2023-02-13T12:19:49;35.08;;;19.42;;
12968;SDS011;6549;53.128;8.182;2023-02-13T12:33:23;42.60;;;24.17;;
12968;SDS011;6549;53.128;8.182;2023-02-13T12:46:42;31.85;;;17.38;;
12968;SDS011;6549;53.128;8.182;2023-02-13T12:53:09;31.50;;;18.08;;
12968;SDS011;6549;53.128;8.182;2023-02-13T13:03:10;35.03;;;18.98;;
12968;SDS011;6549;53.128;8.182;2023-02-13T13:06:28;34.38;;;19.73;;
12968;SDS011;6549;53.128;8.182;2023-02-13T13:13:05;36.80;;;19.93;;
12968;SDS011;6549;53.128;8.182;2023-02-13T13:16:19;35.10;;;19.65;;
12968;SDS011;6549;53.128;8.182;2023-02-13T13:22:56;34.05;;;17.88;;
12968;SDS011;6549;53.128;8.182;2023-02-13T13:26:14;37.15;;;19.52;;
12968;SDS011;6549;53.128;8.182;2023-02-13T13:29:18;31.73;;;18.85;;
12968;SDS011;6549;53.128;8.182;2023-02-13T13:32:22;43.65;;;24.25;;
12968;SDS011;6549;53.128;8.182;2023-02-13T13:35:23;41.17;;;22.10;;
12968;SDS011;6549;53.128;8.182;2023-02-13T13:42:04;32.50;;;18.27;;
12968;SDS011;6549;53.128;8.182;2023-02-13T13:59:15;32.97;;;18.55;;
12968;SDS011;6549;53.128;8.182;2023-02-13T14:11:37;32.63;;;16.88;;
12968;SDS011;6549;53.128;8.182;2023-02-13T14:14:43;30.73;;;17.92;;
12968;SDS011;6549;53.128;8.182;2023-02-13T14:23:50;32.05;;;17.35;;
12968;SDS011;6549;53.128;8.182;2023-02-13T14:26:56;36.70;;;18.40;;
12968;SDS011;6549;53.128;8.182;2023-02-13T14:29:56;36.53;;;19.02;;
12968;SDS011;6549;53.128;8.182;2023-02-13T14:32:59;34.25;;;18.90;;
12968;SDS011;6549;53.128;8.182;2023-02-13T14:36:05;33.00;;;17.88;;
12968;SDS011;6549;53.128;8.182;2023-02-13T14:39:23;32.97;;;17.88;;
12968;SDS011;6549;53.128;8.182;2023-02-13T14:42:27;33.60;;;18.40;;
12968;SDS011;6549;53.128;8.182;2023-02-13T14:45:30;31.90;;;18.52;;
12968;SDS011;6549;53.128;8.182;2023-02-13T14:48:36;32.13;;;18.52;;
12968;SDS011;6549;53.128;8.182;2023-02-13T14:51:45;32.83;;;18.88;;
12968;SDS011;6549;53.128;8.182;2023-02-13T14:54:50;31.60;;;18.02;;
12968;SDS011;6549;53.128;8.182;2023-02-13T14:57:55;32.28;;;18.15;;
12968;SDS011;6549;53.128;8.182;2023-02-13T15:01:24;33.63;;;18.40;;
12968;SDS011;6549;53.128;8.182;2023-02-13T15:07:55;33.55;;;19.35;;
12968;SDS011;6549;53.128;8.182;2023-02-13T15:11:03;35.97;;;19.75;;
12968;SDS011;6549;53.128;8.182;2023-02-13T15:14:31;37.00;;;19.52;;
12968;SDS011;6549;53.128;8.182;2023-02-13T15:17:33;32.08;;;18.67;;
12968;SDS011;6549;53.128;8.182;2023-02-13T15:20:39;34.97;;;19.80;;
12968;SDS011;6549;53.128;8.182;2023-02-13T15:23:42;35.92;;;19.80;;
12968;SDS011;6549;53.128;8.182;2023-02-13T15:26:48;35.75;;;19.55;;
12968;SDS011;6549;53.128;8.182;2023-02-13T15:29:53;37.03;;;20.08;;
12968;SDS011;6549;53.128;8.182;2023-02-13T15:35:56;36.22;;;19.10;;
12968;SDS011;6549;53.128;8.182;2023-02-13T15:38:59;41.55;;;20.02;;
12968;SDS011;6549;53.128;8.182;2023-02-13T15:42:04;37.00;;;20.30;;
12968;SDS011;6549;53.128;8.182;2023-02-13T15:45:04;40.17;;;20.33;;
12968;SDS011;6549;53.128;8.182;2023-02-13T15:48:05;39.95;;;20.48;;
12968;SDS011;6549;53.128;8.182;2023-02-13T15:51:05;39.22;;;21.58;;
12968;SDS011;6549;53.128;8.182;2023-02-13T15:54:18;40.50;;;22.17;;
12968;SDS011;6549;53.128;8.182;2023-02-13T15:57:22;40.95;;;22.17;;
12968;SDS011;6549;53.128;8.182;2023-02-13T16:00:31;44.40;;;22.75;;
12968;SDS011;6549;53.128;8.182;2023-02-13T16:03:33;42.35;;;21.55;;
12968;SDS011;6549;53.128;8.182;2023-02-13T16:06:35;39.47;;;21.55;;
12968;SDS011;6549;53.128;8.182;2023-02-13T16:09:35;38.22;;;20.55;;
12968;SDS011;6549;53.128;8.182;2023-02-13T16:12:36;36.45;;;21.40;;
12968;SDS011;6549;53.128;8.182;2023-02-13T16:15:36;41.08;;;21.80;;
12968;SDS011;6549;53.128;8.182;2023-02-13T16:18:37;41.85;;;22.05;;
12968;SDS011;6549;53.128;8.182;2023-02-13T16:21:39;39.80;;;21.70;;
12968;SDS011;6549;53.128;8.182;2023-02-13T16:24:39;41.30;;;20.90;;
12968;SDS011;6549;53.128;8.182;2023-02-13T16:30:51;44.03;;;22.17;;
12968;SDS011;6549;53.128;8.182;2023-02-13T16:33:55;39.78;;;22.42;;
12968;SDS011;6549;53.128;8.182;2023-02-13T16:36:56;37.55;;;20.52;;
12968;SDS011;6549;53.128;8.182;2023-02-13T16:39:56;41.00;;;21.48;;
12968;SDS011;6549;53.128;8.182;2023-02-13T16:43:33;40.55;;;21.48;;
12968;SDS011;6549;53.128;8.182;2023-02-13T16:46:34;45.28;;;22.88;;
12968;SDS011;6549;53.128;8.182;2023-02-13T16:49:36;39.22;;;22.02;;
12968;SDS011;6549;53.128;8.182;2023-02-13T16:52:36;44.85;;;22.85;;
12968;SDS011;6549;53.128;8.182;2023-02-13T16:55:37;42.90;;;21.88;;
12968;SDS011;6549;53.128;8.182;2023-02-13T16:58:37;42.15;;;21.98;;
12968;SDS011;6549;53.128;8.182;2023-02-13T17:01:38;45.05;;;22.10;;
12968;SDS011;6549;53.128;8.182;2023-02-13T17:04:38;37.80;;;20.87;;
12968;SDS011;6549;53.128;8.182;2023-02-13T17:07:41;47.40;;;23.05;;
12968;SDS011;6549;53.128;8.182;2023-02-13T17:11:00;48.42;;;24.05;;
12968;SDS011;6549;53.128;8.182;2023-02-13T17:14:02;41.58;;;20.88;;
12968;SDS011;6549;53.128;8.182;2023-02-13T17:17:07;46.50;;;21.77;;
12968;SDS011;6549;53.128;8.182;2023-02-13T17:20:16;43.22;;;22.15;;
12968;SDS011;6549;53.128;8.182;2023-02-13T17:26:28;39.08;;;20.67;;
12968;SDS011;6549;53.128;8.182;2023-02-13T17:29:28;41.30;;;21.80;;
12968;SDS011;6549;53.128;8.182;2023-02-13T17:32:29;41.58;;;21.65;;
12968;SDS011;6549;53.128;8.182;2023-02-13T17:35:29;41.05;;;21.92;;
12968;SDS011;6549;53.128;8.182;2023-02-13T17:38:30;40.00;;;20.70;;
12968;SDS011;6549;53.128;8.182;2023-02-13T17:41:30;45.67;;;22.03;;
12968;SDS011;6549;53.128;8.182;2023-02-13T17:44:30;40.53;;;22.13;;
12968;SDS011;6549;53.128;8.182;2023-02-13T17:47:31;40.77;;;20.57;;
12968;SDS011;6549;53.128;8.182;2023-02-13T17:50:31;46.95;;;23.05;;
12968;SDS011;6549;53.128;8.182;2023-02-13T17:53:33;43.38;;;22.30;;
12968;SDS011;6549;53.128;8.182;2023-02-13T17:56:35;46.15;;;23.02;;
12968;SDS011;6549;53.128;8.182;2023-02-13T17:59:35;46.60;;;23.17;;
12968;SDS011;6549;53.128;8.182;2023-02-13T18:02:36;49.30;;;23.55;;
12968;SDS011;6549;53.128;8.182;2023-02-13T18:05:36;43.60;;;22.17;;
12968;SDS011;6549;53.128;8.182;2023-02-13T18:08:36;46.83;;;23.27;;
12968;SDS011;6549;53.128;8.182;2023-02-13T18:11:36;44.30;;;22.83;;
12968;SDS011;6549;53.128;8.182;2023-02-13T18:14:37;44.43;;;23.50;;
12968;SDS011;6549;53.128;8.182;2023-02-13T18:17:37;48.50;;;25.17;;
12968;SDS011;6549;53.128;8.182;2023-02-13T18:20:38;44.00;;;22.65;;
12968;SDS011;6549;53.128;8.182;2023-02-13T18:23:38;51.35;;;24.98;;
12968;SDS011;6549;53.128;8.182;2023-02-13T18:26:38;45.60;;;24.57;;
12968;SDS011;6549;53.128;8.182;2023-02-13T18:29:39;50.00;;;25.15;;
12968;SDS011;6549;53.128;8.182;2023-02-13T18:32:39;46.97;;;23.90;;
12968;SDS011;6549;53.128;8.182;2023-02-13T18:35:40;45.70;;;23.83;;
12968;SDS011;6549;53.128;8.182;2023-02-13T18:38:41;47.80;;;24.67;;
12968;SDS011;6549;53.128;8.182;2023-02-13T18:41:41;44.20;;;23.77;;
12968;SDS011;6549;53.128;8.182;2023-02-13T18:44:42;48.50;;;24.55;;
12968;SDS011;6549;53.128;8.182;2023-02-13T18:47:42;44.87;;;23.63;;
12968;SDS011;6549;53.128;8.182;2023-02-13T18:50:43;42.10;;;23.42;;
12968;SDS011;6549;53.128;8.182;2023-02-13T18:53:43;44.70;;;22.97;;
12968;SDS011;6549;53.128;8.182;2023-02-13T18:56:44;41.58;;;22.52;;
12968;SDS011;6549;53.128;8.182;2023-02-13T18:59:44;39.30;;;21.00;;
12968;SDS011;6549;53.128;8.182;2023-02-13T19:02:45;36.60;;;19.37;;
12968;SDS011;6549;53.128;8.182;2023-02-13T19:05:45;33.60;;;18.87;;
12968;SDS011;6549;53.128;8.182;2023-02-13T19:08:45;35.73;;;19.20;;
12968;SDS011;6549;53.128;8.182;2023-02-13T19:11:45;33.35;;;18.95;;
12968;SDS011;6549;53.128;8.182;2023-02-13T19:14:47;34.72;;;18.25;;
12968;SDS011;6549;53.128;8.182;2023-02-13T19:17:47;34.17;;;20.43;;
12968;SDS011;6549;53.128;8.182;2023-02-13T19:20:47;32.77;;;18.70;;
12968;SDS011;6549;53.128;8.182;2023-02-13T19:23:49;33.35;;;19.42;;
12968;SDS011;6549;53.128;8.182;2023-02-13T19:26:49;40.70;;;22.30;;
12968;SDS011;6549;53.128;8.182;2023-02-13T19:29:51;36.58;;;19.75;;
12968;SDS011;6549;53.128;8.182;2023-02-13T19:32:52;33.20;;;18.17;;
12968;SDS011;6549;53.128;8.182;2023-02-13T19:36:01;32.17;;;18.58;;
12968;SDS011;6549;53.128;8.182;2023-02-13T19:39:04;38.55;;;19.95;;
12968;SDS011;6549;53.128;8.182;2023-02-13T19:42:05;33.10;;;18.57;;
12968;SDS011;6549;53.128;8.182;2023-02-13T19:45:06;30.73;;;17.42;;
12968;SDS011;6549;53.128;8.182;2023-02-13T19:48:06;32.92;;;17.58;;
12968;SDS011;6549;53.128;8.182;2023-02-13T19:51:07;31.90;;;18.50;;
12968;SDS011;6549;53.128;8.182;2023-02-13T19:54:09;29.47;;;17.07;;
12968;SDS011;6549;53.128;8.182;2023-02-13T19:57:09;32.55;;;17.40;;
12968;SDS011;6549;53.128;8.182;2023-02-13T20:00:10;31.33;;;17.93;;
12968;SDS011;6549;53.128;8.182;2023-02-13T20:03:10;32.63;;;17.85;;
12968;SDS011;6549;53.128;8.182;2023-02-13T20:06:12;32.13;;;17.70;;
12968;SDS011;6549;53.128;8.182;2023-02-13T20:09:17;43.17;;;21.25;;
12968;SDS011;6549;53.128;8.182;2023-02-13T20:12:17;31.55;;;17.65;;
12968;SDS011;6549;53.128;8.182;2023-02-13T20:15:17;29.90;;;16.03;;
12968;SDS011;6549;53.128;8.182;2023-02-13T20:18:18;28.88;;;15.88;;
12968;SDS011;6549;53.128;8.182;2023-02-13T20:21:21;29.45;;;16.23;;
12968;SDS011;6549;53.128;8.182;2023-02-13T20:24:21;28.13;;;15.35;;
12968;SDS011;6549;53.128;8.182;2023-02-13T20:27:22;26.70;;;15.23;;
12968;SDS011;6549;53.128;8.182;2023-02-13T20:30:22;31.13;;;16.90;;
12968;SDS011;6549;53.128;8.182;2023-02-13T20:33:22;31.03;;;16.57;;
12968;SDS011;6549;53.128;8.182;2023-02-13T20:36:23;30.80;;;17.05;;
12968;SDS011;6549;53.128;8.182;2023-02-13T20:39:26;30.15;;;15.20;;
12968;SDS011;6549;53.128;8.182;2023-02-13T20:42:26;28.63;;;15.60;;
12968;SDS011;6549;53.128;8.182;2023-02-13T20:45:26;31.08;;;16.95;;